createdAt,value
2017-12-14T00:00:36.500Z,97488.77
2017-12-14T00:03:09.982Z,97485.48
2017-12-14T00:05:43.676Z,97492.16
2017-12-14T00:08:17.552Z,97489.25
2017-12-14T00:10:51.189Z,97491.78
2017-12-14T00:13:24.815Z,97490.45
2017-12-14T00:15:58.953Z,97492.25
2017-12-14T00:18:32.787Z,97509.54
2017-12-14T00:21:06.529Z,97504.53
2017-12-14T00:23:40.380Z,97503.12
2017-12-14T00:26:14.005Z,97510.43
2017-12-14T00:28:47.596Z,97505.11
2017-12-14T00:31:21.286Z,97497.77
2017-12-14T00:33:54.810Z,97496.76
2017-12-14T00:36:28.459Z,97496.45
2017-12-14T00:39:01.989Z,97489.34
2017-12-14T00:41:35.479Z,97503.78
2017-12-14T00:44:09.039Z,97506.39
2017-12-14T00:46:42.832Z,97506.78
2017-12-14T00:49:16.486Z,97513.69
2017-12-14T00:51:50.022Z,97523.97
2017-12-14T00:54:23.523Z,97513.05
2017-12-14T00:56:57.037Z,97523.56
2017-12-14T00:59:30.693Z,97519.53
2017-12-14T01:02:04.516Z,97524.83
2017-12-14T01:04:38.103Z,97526.83
2017-12-14T01:07:11.451Z,97519.98
2017-12-14T01:09:45.158Z,97511.45
2017-12-14T01:12:19.003Z,97514.83
2017-12-14T01:14:52.650Z,97503.72
2017-12-14T01:17:26.101Z,97514.03
2017-12-14T01:19:59.703Z,97514.56
2017-12-14T01:22:33.205Z,97519.13
2017-12-14T01:25:07.035Z,97515.66
2017-12-14T01:27:40.646Z,97517.14
2017-12-14T01:30:16.128Z,97531.42
2017-12-14T01:32:49.393Z,97530.30
2017-12-14T01:35:23.129Z,97523.28
2017-12-14T01:37:56.702Z,97529.51
2017-12-14T01:40:30.517Z,97519.55
2017-12-14T01:43:04.182Z,97524.23
2017-12-14T01:45:37.857Z,97527.66
2017-12-14T01:48:11.499Z,97535.56
2017-12-14T01:50:45.049Z,97540.49
2017-12-14T01:53:18.603Z,97543.20
2017-12-14T01:55:52.396Z,97543.16
2017-12-14T01:58:25.838Z,97546.84
2017-12-14T02:00:59.375Z,97543.87
2017-12-14T02:03:32.794Z,97531.17
2017-12-14T02:06:06.480Z,97516.98
2017-12-14T02:08:40.062Z,97511.72
2017-12-14T02:11:13.995Z,97511.76
2017-12-14T02:13:47.600Z,97506.57
2017-12-14T02:16:37.135Z,97497.70
2017-12-14T02:19:10.387Z,97495.74
2017-12-14T02:21:43.927Z,97501.59
2017-12-14T02:24:20.836Z,97494.91
2017-12-14T02:26:55.732Z,97482.64
2017-12-14T02:29:29.273Z,97485.39
2017-12-14T02:32:02.921Z,97481.91
2017-12-14T02:34:40.747Z,97470.97
2017-12-14T02:37:14.484Z,97482.48
2017-12-14T02:39:48.043Z,97479.11
2017-12-14T02:42:21.585Z,97488.26
2017-12-14T02:44:55.305Z,97494.34
2017-12-14T02:47:28.894Z,97493.89
2017-12-14T02:50:02.342Z,97480.64
2017-12-14T02:52:36.106Z,97459.27
2017-12-14T02:55:10.236Z,97450.92
2017-12-14T02:57:43.961Z,97438.40
2017-12-14T03:00:18.037Z,97431.80
2017-12-14T03:02:51.496Z,97420.25
2017-12-14T03:05:25.174Z,97419.03
2017-12-14T03:07:58.774Z,97420.88
2017-12-14T03:10:32.939Z,97420.64
2017-12-14T03:13:06.359Z,97426.66
2017-12-14T03:15:39.824Z,97409.06
2017-12-14T03:18:13.644Z,97389.92
2017-12-14T03:20:47.429Z,97396.41
2017-12-14T03:23:21.187Z,97412.29
2017-12-14T03:25:55.296Z,97407.52
2017-12-14T03:28:29.281Z,97416.77
2017-12-14T03:31:03.310Z,97427.22
2017-12-14T03:33:37.036Z,97442.07
2017-12-14T03:36:10.615Z,97442.99
2017-12-14T03:38:44.245Z,97438.16
2017-12-14T03:41:17.758Z,97431.52
2017-12-14T03:43:51.589Z,97410.78
2017-12-14T03:46:25.295Z,97409.98
2017-12-14T03:48:59.042Z,97417.26
2017-12-14T03:51:32.625Z,97432.27
2017-12-14T03:54:06.242Z,97434.95
2017-12-14T03:56:40.485Z,97424.70
2017-12-14T03:59:14.142Z,97431.05
2017-12-14T04:01:47.805Z,97423.98
2017-12-14T04:04:21.652Z,97431.89
2017-12-14T04:06:55.454Z,97423.84
2017-12-14T04:09:29.152Z,97422.41
2017-12-14T04:12:03.304Z,97440.27
2017-12-14T04:14:36.924Z,97432.77
2017-12-14T04:17:10.685Z,97441.18
2017-12-14T04:19:44.238Z,97459.16
2017-12-14T04:22:18.576Z,97455.30
2017-12-14T04:24:52.253Z,97469.91
2017-12-14T04:27:26.029Z,97478.90
2017-12-14T04:30:00.763Z,97481.11
2017-12-14T04:32:37.379Z,97485.67
2017-12-14T04:35:10.987Z,97480.50
2017-12-14T04:37:44.939Z,97486.15
2017-12-14T04:40:18.484Z,97513.76
2017-12-14T04:42:52.113Z,97517.78
2017-12-14T04:45:25.803Z,97524.68
2017-12-14T04:47:59.602Z,97532.11
2017-12-14T04:50:33.655Z,97531.06
2017-12-14T04:53:07.369Z,97536.28
2017-12-14T04:55:40.637Z,97546.37
2017-12-14T04:58:14.367Z,97558.36
2017-12-14T05:00:48.001Z,97551.70
2017-12-14T05:03:21.905Z,97583.08
2017-12-14T05:05:55.542Z,97594.47
2017-12-14T05:08:29.191Z,97601.42
2017-12-14T05:11:02.732Z,97595.31
2017-12-14T05:13:36.799Z,97592.98
2017-12-14T05:16:10.826Z,97608.27
2017-12-14T05:18:44.404Z,97602.29
2017-12-14T05:21:18.529Z,97610.66
2017-12-14T05:23:52.204Z,97610.91
2017-12-14T05:26:26.022Z,97602.75
2017-12-14T05:28:59.630Z,97629.20
2017-12-14T05:31:33.829Z,97622.83
2017-12-14T05:34:07.514Z,97640.92
2017-12-14T05:36:41.272Z,97640.42
2017-12-14T05:39:15.167Z,97628.02
2017-12-14T05:41:49.018Z,97643.70
2017-12-14T05:44:23.099Z,97651.14
2017-12-14T05:46:56.866Z,97654.81
2017-12-14T05:49:30.599Z,97663.36
2017-12-14T05:52:04.657Z,97669.53
2017-12-14T05:54:38.852Z,97684.55
2017-12-14T05:57:17.610Z,97678.59
2017-12-14T05:59:51.751Z,97685.46
2017-12-14T06:02:25.383Z,97688.64
2017-12-14T06:04:59.275Z,97706.38
2017-12-14T06:07:32.919Z,97713.75
2017-12-14T06:10:06.572Z,97728.31
2017-12-14T06:12:40.048Z,97733.19
2017-12-14T06:15:16.814Z,97732.77
2017-12-14T06:17:50.925Z,97750.75
2017-12-14T06:20:24.726Z,97744.94
2017-12-14T06:22:58.474Z,97753.05
2017-12-14T06:25:32.270Z,97761.14
2017-12-14T06:28:06.235Z,97772.73
2017-12-14T06:30:39.699Z,97766.66
2017-12-14T06:33:13.244Z,97777.19
2017-12-14T06:35:47.144Z,97798.56
2017-12-14T06:38:20.745Z,97786.68
2017-12-14T06:40:54.496Z,97801.54
2017-12-14T06:43:28.394Z,97795.05
2017-12-14T06:46:02.158Z,97816.96
2017-12-14T06:48:35.912Z,97834.42
2017-12-14T06:51:09.749Z,97834.13
2017-12-14T06:53:43.600Z,97831.72
2017-12-14T06:56:17.309Z,97857.94
2017-12-14T06:58:51.215Z,97860.62
2017-12-14T07:01:24.967Z,97869.44
2017-12-14T07:04:01.464Z,97889.19
2017-12-14T07:06:35.626Z,97896.59
2017-12-14T07:09:09.720Z,97888.09
2017-12-14T07:11:44.178Z,97894.84
2017-12-14T07:14:17.923Z,97899.16
2017-12-14T07:16:51.576Z,97898.23
2017-12-14T07:19:25.379Z,97921.20
2017-12-14T07:21:59.021Z,97912.41
2017-12-14T07:24:32.654Z,97919.19
2017-12-14T07:27:07.347Z,97919.31
2017-12-14T07:29:41.121Z,97921.61
2017-12-14T07:32:14.865Z,97946.75
2017-12-14T07:34:48.582Z,97925.53
2017-12-14T07:37:22.647Z,97935.00
2017-12-14T07:39:56.418Z,97931.74
2017-12-14T07:42:39.955Z,97943.91
2017-12-14T07:45:27.889Z,97942.41
2017-12-14T07:48:02.079Z,97939.44
2017-12-14T07:50:35.953Z,97947.30
2017-12-14T07:53:09.733Z,97950.41
2017-12-14T07:55:43.356Z,97950.80
2017-12-14T07:58:17.089Z,97949.34
2017-12-14T08:00:50.803Z,97959.73
2017-12-14T08:03:24.573Z,97954.88
2017-12-14T08:05:58.249Z,97959.33
2017-12-14T08:08:32.366Z,97964.59
2017-12-14T08:11:05.965Z,97966.77
2017-12-14T08:13:39.753Z,97978.52
2017-12-14T08:16:13.749Z,97976.75
2017-12-14T08:18:47.350Z,97983.91
2017-12-14T08:21:21.106Z,97977.29
2017-12-14T08:23:54.711Z,97985.11
2017-12-14T08:26:28.333Z,97993.52
2017-12-14T08:29:02.404Z,98003.24
2017-12-14T08:31:36.023Z,97990.67
2017-12-14T08:34:10.119Z,98000.67
2017-12-14T08:36:43.822Z,98001.79
2017-12-14T08:39:17.781Z,97996.79
2017-12-14T08:41:51.736Z,98004.20
2017-12-14T08:44:25.373Z,98009.59
2017-12-14T08:46:59.177Z,98000.25
2017-12-14T08:49:33.035Z,98003.37
2017-12-14T08:52:06.792Z,98015.00
2017-12-14T08:54:40.421Z,98019.48
2017-12-14T08:57:14.334Z,98024.09
2017-12-14T08:59:47.859Z,98027.19
2017-12-14T09:02:21.801Z,98031.11
2017-12-14T09:04:55.595Z,98033.77
2017-12-14T09:07:30.344Z,98021.88
2017-12-14T09:10:03.992Z,98037.58
2017-12-14T09:12:37.650Z,98033.39
2017-12-14T09:15:13.393Z,98050.57
2017-12-14T09:17:47.083Z,98053.98
2017-12-14T09:20:20.921Z,98059.77
2017-12-14T09:22:55.689Z,98054.26
2017-12-14T09:25:29.332Z,98059.05
2017-12-14T09:28:03.310Z,98060.70
2017-12-14T09:30:37.200Z,98063.29
2017-12-14T09:33:10.798Z,98061.69
2017-12-14T09:35:44.379Z,98060.45
2017-12-14T09:38:18.594Z,98062.75
2017-12-14T09:40:52.381Z,98061.94
2017-12-14T09:43:26.164Z,98064.39
2017-12-14T09:45:59.923Z,98075.88
2017-12-14T09:48:33.574Z,98076.83
2017-12-14T09:51:07.211Z,98088.58
2017-12-14T09:53:41.156Z,98094.94
2017-12-14T09:56:15.016Z,98095.20
2017-12-14T09:58:48.871Z,98087.64
2017-12-14T10:01:22.649Z,98089.95
2017-12-14T10:03:56.445Z,98088.04
2017-12-14T10:06:30.546Z,98083.72
2017-12-14T10:09:04.161Z,98073.98
2017-12-14T10:11:37.868Z,98079.78
2017-12-14T10:14:11.654Z,98085.90
2017-12-14T10:16:45.942Z,98085.08
2017-12-14T10:19:19.695Z,98079.09
2017-12-14T10:21:53.458Z,98075.44
2017-12-14T10:24:27.436Z,98072.63
2017-12-14T10:27:01.406Z,98069.78
2017-12-14T10:29:35.269Z,98068.53
2017-12-14T10:32:09.563Z,98063.34
2017-12-14T10:34:43.254Z,98069.73
2017-12-14T10:37:17.001Z,98068.41
2017-12-14T10:39:50.737Z,98061.49
2017-12-14T10:42:24.492Z,98056.32
2017-12-14T10:44:58.116Z,98050.40
2017-12-14T10:47:32.220Z,98042.78
2017-12-14T10:50:05.989Z,98041.61
2017-12-14T10:52:39.714Z,98045.12
2017-12-14T10:55:13.437Z,98035.75
2017-12-14T10:57:46.961Z,98041.97
2017-12-14T11:00:21.418Z,98035.92
2017-12-14T11:02:55.256Z,98036.48
2017-12-14T11:05:28.803Z,98026.70
2017-12-14T11:08:02.460Z,98023.03
2017-12-14T11:10:36.045Z,98022.30
2017-12-14T11:13:09.937Z,98011.52
2017-12-14T11:15:43.761Z,98009.22
2017-12-14T11:18:18.077Z,98010.39
2017-12-14T11:20:51.826Z,98006.94
2017-12-14T11:23:25.919Z,98006.80
2017-12-14T11:25:59.674Z,98001.64
2017-12-14T11:28:33.399Z,97989.16
2017-12-14T11:31:07.012Z,97986.57
2017-12-14T11:33:48.448Z,97992.39
2017-12-14T11:36:22.231Z,97989.97
2017-12-14T11:38:55.807Z,97985.71
2017-12-14T11:41:30.058Z,97971.55
2017-12-14T11:44:03.873Z,97972.53
2017-12-14T11:46:37.695Z,97970.34
2017-12-14T11:49:11.421Z,97968.67
2017-12-14T11:51:45.324Z,97970.95
2017-12-14T11:54:19.514Z,97962.59
2017-12-14T11:56:53.216Z,97962.12
2017-12-14T11:59:26.922Z,97965.47
2017-12-14T12:02:00.672Z,97952.59
2017-12-14T12:04:34.870Z,97949.69
2017-12-14T12:07:08.963Z,97943.40
2017-12-14T12:09:42.630Z,97940.66
2017-12-14T12:12:16.340Z,97935.40
2017-12-14T12:14:50.300Z,97937.52
2017-12-14T12:17:23.951Z,97937.70
2017-12-14T12:19:57.591Z,97944.05
2017-12-14T12:22:31.317Z,97940.15
2017-12-14T12:25:04.986Z,97937.23
2017-12-14T12:27:38.681Z,97932.28
2017-12-14T12:30:14.029Z,97934.95
2017-12-14T12:32:47.929Z,97916.59
2017-12-14T12:35:21.685Z,97922.13
2017-12-14T12:37:57.010Z,97920.28
2017-12-14T12:40:30.742Z,97906.48
2017-12-14T12:43:04.438Z,97924.30
2017-12-14T12:45:38.260Z,97913.21
2017-12-14T12:48:11.937Z,97921.72
2017-12-14T12:50:45.561Z,97917.76
2017-12-14T12:53:19.420Z,97911.95
2017-12-14T12:55:54.118Z,97918.39
2017-12-14T12:58:28.471Z,97929.27
2017-12-14T13:01:02.620Z,97914.98
2017-12-14T13:03:36.300Z,97920.81
2017-12-14T13:06:10.038Z,97916.39
2017-12-14T13:08:43.776Z,97904.45
2017-12-14T13:11:17.793Z,97906.30
2017-12-14T13:13:51.383Z,97899.93
2017-12-14T13:16:25.237Z,97904.34
2017-12-14T13:18:59.091Z,97904.62
2017-12-14T13:21:32.742Z,97920.53
2017-12-14T13:24:07.131Z,97920.29
2017-12-14T13:26:40.810Z,97911.91
2017-12-14T13:29:14.664Z,97913.92
2017-12-14T13:31:48.406Z,97902.45
2017-12-14T13:34:22.307Z,97907.38
2017-12-14T13:36:56.270Z,97910.28
2017-12-14T13:39:30.143Z,97899.91
2017-12-14T13:42:04.107Z,97904.48
2017-12-14T13:44:37.873Z,97903.09
2017-12-14T13:47:12.047Z,97897.20
2017-12-14T13:49:46.146Z,97901.45
2017-12-14T13:52:19.983Z,97907.66
2017-12-14T13:54:53.778Z,97902.69
2017-12-14T13:57:27.782Z,97891.78
2017-12-14T14:00:01.633Z,97886.81
2017-12-14T14:02:37.362Z,97861.72
2017-12-14T14:05:10.990Z,97869.58
2017-12-14T14:07:44.727Z,97874.67
2017-12-14T14:10:18.409Z,97861.21
2017-12-14T14:12:52.082Z,97864.47
2017-12-14T14:15:26.140Z,97861.67
2017-12-14T14:17:59.900Z,97869.81
2017-12-14T14:20:33.539Z,97869.98
2017-12-14T14:23:07.337Z,97862.29
2017-12-14T14:25:41.198Z,97858.33
2017-12-14T14:28:15.316Z,97858.58
2017-12-14T14:30:49.146Z,97870.55
2017-12-14T14:33:23.117Z,97862.36
2017-12-14T14:35:56.702Z,97852.05
2017-12-14T14:38:30.389Z,97856.63
2017-12-14T14:41:04.220Z,97853.58
2017-12-14T14:43:38.588Z,97848.05
2017-12-14T14:46:12.267Z,97846.15
2017-12-14T14:48:46.206Z,97845.41
2017-12-14T14:51:20.290Z,97842.22
2017-12-14T14:53:54.090Z,97835.50
2017-12-14T14:56:27.621Z,97828.69
2017-12-14T14:59:01.848Z,97828.48
2017-12-14T15:01:35.560Z,97827.22
2017-12-14T15:04:09.226Z,97830.11
2017-12-14T15:06:43.267Z,97836.11
2017-12-14T15:09:17.140Z,97829.97
2017-12-14T15:11:50.915Z,97835.30
2017-12-14T15:14:24.621Z,97851.91
2017-12-14T15:16:58.346Z,97850.09
2017-12-14T15:19:32.858Z,97853.44
2017-12-14T15:22:06.527Z,97852.72
2017-12-14T15:24:40.317Z,97854.66
2017-12-14T15:27:13.947Z,97852.52
2017-12-14T15:29:47.742Z,97855.00
2017-12-14T15:32:21.889Z,97857.55
2017-12-14T15:34:55.630Z,97853.94
2017-12-14T15:37:29.398Z,97848.87
2017-12-14T15:40:02.772Z,97849.70
2017-12-14T15:42:33.834Z,97840.55
2017-12-14T15:45:06.720Z,97847.06
2017-12-14T15:47:40.347Z,97831.48
2017-12-14T15:50:12.549Z,97828.27
2017-12-14T15:52:44.550Z,97820.27
2017-12-14T15:55:19.705Z,97815.24
2017-12-14T15:57:52.060Z,97818.22
2017-12-14T16:00:23.067Z,97811.03
2017-12-14T16:02:54.077Z,97806.59
2017-12-14T16:05:28.294Z,97811.45
2017-12-14T16:07:59.259Z,97807.63
2017-12-14T16:10:30.672Z,97816.67
2017-12-14T16:13:02.809Z,97814.82
2017-12-14T16:15:33.824Z,97815.41
2017-12-14T16:18:04.909Z,97814.01
2017-12-14T16:20:38.577Z,97812.69
2017-12-14T16:23:14.638Z,97807.97
2017-12-14T16:25:46.006Z,97807.47
2017-12-14T16:28:16.895Z,97801.73
2017-12-14T16:30:48.427Z,97805.70
2017-12-14T16:33:20.173Z,97798.56
2017-12-14T16:35:52.526Z,97798.66
2017-12-14T16:38:25.893Z,97794.45
2017-12-14T16:40:58.670Z,97801.06
2017-12-14T16:43:30.647Z,97792.04
2017-12-14T16:46:03.010Z,97793.29
2017-12-14T16:48:36.074Z,97784.97
2017-12-14T16:51:07.049Z,97779.98
2017-12-14T16:53:39.470Z,97776.00
2017-12-14T16:56:10.423Z,97777.55
2017-12-14T16:58:41.791Z,97774.69
2017-12-14T17:01:12.978Z,97767.48
2017-12-14T17:03:44.226Z,97758.28
2017-12-14T17:06:15.285Z,97750.56
2017-12-14T17:08:46.344Z,97748.97
2017-12-14T17:11:20.540Z,97750.20
2017-12-14T17:13:53.764Z,97741.95
2017-12-14T17:16:26.495Z,97744.98
2017-12-14T17:18:59.562Z,97745.41
2017-12-14T17:21:32.360Z,97734.72
2017-12-14T17:24:04.353Z,97721.41
2017-12-14T17:26:36.683Z,97718.19
2017-12-14T17:29:08.626Z,97716.56
2017-12-14T17:31:40.571Z,97710.50
2017-12-14T17:34:12.863Z,97710.64
2017-12-14T17:36:47.721Z,97707.92
2017-12-14T17:39:20.497Z,97703.89
2017-12-14T17:41:53.270Z,97707.75
2017-12-14T17:44:25.590Z,97700.39
2017-12-14T17:46:59.896Z,97701.13
2017-12-14T17:49:34.732Z,97707.31
2017-12-14T17:52:08.012Z,97704.11
2017-12-14T17:54:42.642Z,97708.03
2017-12-14T17:57:17.284Z,97709.20
2017-12-14T17:59:52.432Z,97703.50
2017-12-14T18:02:27.409Z,97701.19
2017-12-14T18:05:01.245Z,97699.59
2017-12-14T18:07:35.020Z,97696.88
2017-12-14T18:10:08.830Z,97698.84
2017-12-14T18:12:42.567Z,97691.11
2017-12-14T18:15:16.643Z,97684.55
2017-12-14T18:17:51.243Z,97690.16
2017-12-14T18:20:25.069Z,97688.70
2017-12-14T18:22:58.830Z,97689.32
2017-12-14T18:25:32.941Z,97684.52
2017-12-14T18:28:06.669Z,97676.83
2017-12-14T18:30:40.487Z,97682.07
2017-12-14T18:33:14.410Z,97673.49
2017-12-14T18:35:49.056Z,97670.95
2017-12-14T18:38:22.995Z,97663.41
2017-12-14T18:40:58.003Z,97668.91
2017-12-14T18:43:32.708Z,97656.52
2017-12-14T18:46:06.659Z,97673.55
2017-12-14T18:48:40.806Z,97659.42
2017-12-14T18:51:14.619Z,97648.62
2017-12-14T18:53:49.225Z,97646.19
2017-12-14T18:56:23.119Z,97641.02
2017-12-14T18:58:57.990Z,97634.62
2017-12-14T19:01:31.909Z,97636.06
2017-12-14T19:04:07.623Z,97634.45
2017-12-14T19:06:42.112Z,97639.74
2017-12-14T19:09:15.877Z,97639.66
2017-12-14T19:11:50.008Z,97642.43
2017-12-14T19:14:23.728Z,97630.50
2017-12-14T19:16:57.565Z,97637.70
2017-12-14T19:19:32.008Z,97638.77
2017-12-14T19:22:05.935Z,97637.91
2017-12-14T19:24:40.384Z,97636.93
2017-12-14T19:27:14.212Z,97642.11
2017-12-14T19:29:48.048Z,97640.66
2017-12-14T19:32:21.963Z,97642.47
2017-12-14T19:34:57.252Z,97638.01
2017-12-14T19:37:31.964Z,97630.02
2017-12-14T19:40:06.816Z,97619.19
2017-12-14T19:42:41.395Z,97615.33
2017-12-14T19:45:16.721Z,97613.67
2017-12-14T19:47:51.985Z,97601.48
2017-12-14T19:50:26.621Z,97600.28
2017-12-14T19:53:01.873Z,97598.30
2017-12-14T19:55:36.190Z,97588.83
2017-12-14T19:58:10.987Z,97589.48
2017-12-14T20:00:44.885Z,97584.89
2017-12-14T20:03:18.466Z,97588.33
2017-12-14T20:05:52.191Z,97590.61
2017-12-14T20:08:26.476Z,97586.13
2017-12-14T20:11:00.707Z,97584.86
2017-12-14T20:13:34.606Z,97585.67
2017-12-14T20:16:08.428Z,97593.67
2017-12-14T20:18:42.513Z,97592.70
2017-12-14T20:21:16.534Z,97581.05
2017-12-14T20:23:50.486Z,97585.73
2017-12-14T20:26:24.554Z,97580.89
2017-12-14T20:28:58.452Z,97573.13
2017-12-14T20:31:32.586Z,97578.16
2017-12-14T20:34:06.428Z,97576.41
2017-12-14T20:36:40.194Z,97576.81
2017-12-14T20:39:14.362Z,97586.34
2017-12-14T20:41:48.027Z,97595.08
2017-12-14T20:44:22.234Z,97605.16
2017-12-14T20:46:56.124Z,97610.88
2017-12-14T20:49:29.980Z,97614.09
2017-12-14T20:52:03.655Z,97618.19
2017-12-14T20:54:38.598Z,97616.42
2017-12-14T20:57:12.690Z,97610.63
2017-12-14T20:59:46.720Z,97598.31
2017-12-14T21:02:20.949Z,97608.77
2017-12-14T21:04:54.858Z,97601.47
2017-12-14T21:07:28.408Z,97590.34
2017-12-14T21:10:02.153Z,97591.20
2017-12-14T21:12:36.309Z,97584.38
2017-12-14T21:15:10.717Z,97578.08
2017-12-14T21:17:45.222Z,97574.23
2017-12-14T21:20:19.052Z,97582.52
2017-12-14T21:22:52.841Z,97581.31
2017-12-14T21:25:26.640Z,97572.69
2017-12-14T21:28:00.854Z,97562.49
2017-12-14T21:30:34.663Z,97553.48
2017-12-14T21:33:08.498Z,97550.53
2017-12-14T21:35:42.741Z,97542.31
2017-12-14T21:38:16.504Z,97544.80
2017-12-14T21:40:50.246Z,97545.04
2017-12-14T21:43:23.852Z,97543.61
2017-12-14T21:45:57.554Z,97540.91
2017-12-14T21:48:31.599Z,97543.73
2017-12-14T21:51:06.186Z,97542.98
2017-12-14T21:53:39.221Z,97538.39
2017-12-14T21:56:11.000Z,97538.73
2017-12-14T21:58:43.888Z,97528.45
2017-12-14T22:01:15.798Z,97532.06
2017-12-14T22:03:48.558Z,97525.33
2017-12-14T22:06:22.488Z,97521.19
2017-12-14T22:08:56.140Z,97522.02
2017-12-14T22:11:30.177Z,97516.53
2017-12-14T22:14:03.881Z,97518.09
2017-12-14T22:16:37.444Z,97502.92
2017-12-14T22:19:11.612Z,97501.95
2017-12-14T22:21:45.664Z,97500.37
2017-12-14T22:24:19.525Z,97491.75
2017-12-14T22:26:53.254Z,97485.30
2017-12-14T22:29:27.106Z,97470.69
2017-12-14T22:32:01.331Z,97478.50
2017-12-14T22:34:34.996Z,97465.86
2017-12-14T22:37:08.761Z,97459.59
2017-12-14T22:39:43.058Z,97457.13
2017-12-14T22:42:16.772Z,97467.33
2017-12-14T22:44:50.915Z,97467.27
2017-12-14T22:47:24.494Z,97479.92
2017-12-14T22:49:58.214Z,97484.63
2017-12-14T22:52:31.986Z,97507.52
2017-12-14T22:55:05.745Z,97507.87
2017-12-14T22:57:39.512Z,97502.75
2017-12-14T23:00:15.492Z,97501.11
2017-12-14T23:02:48.971Z,97488.81
2017-12-14T23:05:22.778Z,97479.72
2017-12-14T23:07:56.568Z,97474.88
2017-12-14T23:10:30.227Z,97470.31
2017-12-14T23:13:04.044Z,97459.51
2017-12-14T23:15:38.132Z,97450.88
2017-12-14T23:18:11.784Z,97457.17
2017-12-14T23:20:45.368Z,97453.59
2017-12-14T23:23:19.073Z,97446.72
2017-12-14T23:25:53.304Z,97447.03
2017-12-14T23:28:27.469Z,97456.91
2017-12-14T23:31:01.638Z,97438.83
2017-12-14T23:33:35.119Z,97432.02
2017-12-14T23:36:08.863Z,97421.70
2017-12-14T23:38:42.992Z,97426.52
2017-12-14T23:41:16.685Z,97418.58
2017-12-14T23:43:51.131Z,97421.48
2017-12-14T23:46:25.173Z,97414.47
2017-12-14T23:48:58.933Z,97409.77
2017-12-14T23:51:32.536Z,97412.34
2017-12-14T23:54:06.919Z,97406.67
2017-12-14T23:56:40.590Z,97402.30
2017-12-14T23:59:14.237Z,97399.36
